Eden, NC

7:05 AM EST on December 29, 2014 (GMT -0500)
Homestead | Change Station
CLOSE
Current Station
Personal Weather Station
Location: Stoneville, NC
Elevation: 600 ft
Nearby Weather Stations

Elev 600 ft 36.46 °N, 79.81 °W | Updated 59 seconds ago

Rain
Rain
48.6 °F
Feels Like 49 °F
N
0.0
Wind Variable Wind from East

Today
High -- | Low -- °F
--% Chance of Precip.
Yesterday
High -- | Low -- °F
Precip. -- in
7:30 AM 5:12 PM
First Quarter, 58% visible
Pressure 30.09 in
Visibility 3.0 miles
Clouds Scattered Clouds 400 ft
Mostly Cloudy 2200 ft
Overcast 3600 ft
Windchill 49 °F
Dew Point 48 °F
Humidity 99%
Rainfall 0.39 in
Snow Depth Not available.
UV 0 out of 12
Pollen .30 out of 12
Air Quality Not available.
Flu Activity Not available.
METAR KSIF 291155Z AUTO 00000KT 3SM +RA SCT004 BKN022 OVC036 10/10 A3009 RMK AO2 P0014 60030 70030 T00950095 10097 20091

More Conditions Fewer Conditions

Pressure 30.09 in
Visibility 3.0 miles
Clouds Scattered Clouds 400 ft
Mostly Cloudy 2200 ft
Overcast 3600 ft
Windchill 49 °F
Dew Point 48 °F
Humidity 99%
Rainfall 0.39 in
Snow Depth Not available.
UV 0 out of 12
Pollen .30 out of 12
Air Quality Not available.
Flu Activity Not available.
METAR KSIF 291155Z AUTO 00000KT 3SM +RA SCT004 BKN022 OVC036 10/10 A3009 RMK AO2 P0014 60030 70030 T00950095 10097 20091

More Conditions Fewer Conditions

10-Day Weather Forecast

Almanac

Astronomy

Dec. 29, 2014 Rise Set
Actual Time
Civil Twilight
Nautical Twilight
Astronomical Twilight
Moon
Length of Visible Light
Length of Day
Tomorrow will be .
, % of the Moon is Illuminated

Today's Extremes

State Highs State Lows

Community

WunderPhotos

Upload Photos

1,781,573 photos uploaded!

WunderBlogs® & News

Nearby

Air Quality

  Air Quality AQ Index Pollutant
Not available.

Snow Depth

Station Depth Elevation

Earthquake Activity

City Distance Mag. Time & Date
Minimum magnitude displayed is 2.5.

Coastal Water Temperatures

Place Temperature

Nearby Weather Stations